createdAt,value
2017-11-30T00:01:10.056Z,19.37
2017-11-30T00:03:38.343Z,20.62
2017-11-30T00:06:06.640Z,18.10
2017-11-30T00:08:35.717Z,19.83
2017-11-30T00:11:03.962Z,22.80
2017-11-30T00:13:32.244Z,18.70
2017-11-30T00:16:00.501Z,22.75
2017-11-30T00:18:28.774Z,22.42
2017-11-30T00:20:57.778Z,17.57
2017-11-30T00:23:26.083Z,23.40
2017-11-30T00:25:54.350Z,19.07
2017-11-30T00:28:22.644Z,22.60
2017-11-30T00:30:50.911Z,22.60
2017-11-30T00:33:19.191Z,20.75
2017-11-30T00:35:47.467Z,23.90
2017-11-30T00:38:15.747Z,19.33
2017-11-30T00:40:44.018Z,20.40
2017-11-30T00:43:24.812Z,22.60
2017-11-30T00:45:53.077Z,25.23
2017-11-30T00:48:21.372Z,23.52
2017-11-30T00:50:49.624Z,27.30
2017-11-30T00:53:18.656Z,25.30
2017-11-30T00:55:46.925Z,25.53
2017-11-30T00:58:15.180Z,26.87
2017-11-30T01:00:44.235Z,26.87
2017-11-30T01:03:12.497Z,25.00
2017-11-30T01:05:40.776Z,22.23
2017-11-30T01:08:09.038Z,33.33
2017-11-30T01:10:37.303Z,25.55
2017-11-30T01:13:06.320Z,31.80
2017-11-30T01:15:34.599Z,23.13
2017-11-30T01:18:02.848Z,30.58
2017-11-30T01:20:31.886Z,33.88
2017-11-30T01:23:00.136Z,25.40
2017-11-30T01:25:29.186Z,29.20
2017-11-30T01:27:57.472Z,31.00
2017-11-30T01:30:25.748Z,27.37
2017-11-30T01:32:54.008Z,27.80
2017-11-30T01:35:22.299Z,32.33
2017-11-30T01:37:50.560Z,26.05
2017-11-30T01:40:18.832Z,30.53
2017-11-30T01:42:47.087Z,33.92
2017-11-30T01:45:16.127Z,27.98
2017-11-30T01:47:44.440Z,30.60
2017-11-30T01:50:12.748Z,28.50
2017-11-30T01:52:40.979Z,25.52
2017-11-30T01:55:09.284Z,23.67
2017-11-30T01:57:37.552Z,25.40
2017-11-30T02:00:05.844Z,29.23
2017-11-30T02:02:34.116Z,26.00
2017-11-30T02:05:02.409Z,35.77
2017-11-30T02:07:30.668Z,23.00
2017-11-30T02:09:59.920Z,23.77
2017-11-30T02:12:28.165Z,23.70
2017-11-30T02:14:56.434Z,31.23
2017-11-30T02:17:24.726Z,23.95
2017-11-30T02:19:52.987Z,25.13
2017-11-30T02:22:21.273Z,30.90
2017-11-30T02:24:49.600Z,25.35
2017-11-30T02:27:17.837Z,30.77
2017-11-30T02:29:46.108Z,31.48
2017-11-30T02:32:14.370Z,29.80
2017-11-30T02:34:43.418Z,31.03
2017-11-30T02:37:11.694Z,36.20
2017-11-30T02:39:39.962Z,28.27
2017-11-30T02:42:08.309Z,35.72
2017-11-30T02:44:37.353Z,32.80
2017-11-30T02:47:05.635Z,29.60
2017-11-30T02:49:34.013Z,30.98
2017-11-30T02:52:02.287Z,29.52
2017-11-30T02:54:30.598Z,33.40
2017-11-30T02:56:58.840Z,29.23
2017-11-30T02:59:27.116Z,28.75
2017-11-30T03:01:55.394Z,31.30
2017-11-30T03:04:23.667Z,29.67
2017-11-30T03:06:52.688Z,30.80
2017-11-30T03:09:20.971Z,26.83
2017-11-30T03:11:49.261Z,33.03
2017-11-30T03:14:17.661Z,34.07
2017-11-30T03:16:45.912Z,32.08
2017-11-30T03:19:14.182Z,33.28
2017-11-30T03:21:42.437Z,31.57
2017-11-30T03:24:10.707Z,31.60
2017-11-30T03:26:38.961Z,31.08
2017-11-30T03:29:07.216Z,31.10
2017-11-30T03:31:35.612Z,36.97
2017-11-30T03:34:03.869Z,35.33
2017-11-30T03:36:32.160Z,34.92
2017-11-30T03:39:00.424Z,31.87
2017-11-30T03:41:28.720Z,37.15
2017-11-30T03:43:57.021Z,29.50
2017-11-30T03:46:25.277Z,25.20
2017-11-30T03:48:53.540Z,30.17
2017-11-30T03:51:21.813Z,34.67
2017-11-30T03:53:50.093Z,27.30
2017-11-30T03:56:18.368Z,29.13
2017-11-30T03:58:46.627Z,34.43
2017-11-30T04:01:15.672Z,33.80
2017-11-30T04:03:43.932Z,31.65
2017-11-30T04:06:12.212Z,32.05
2017-11-30T04:08:40.485Z,31.77
2017-11-30T04:11:09.525Z,36.60
2017-11-30T04:13:37.783Z,34.22
2017-11-30T04:16:06.058Z,30.80
2017-11-30T04:18:34.312Z,30.62
2017-11-30T04:21:03.344Z,36.57
2017-11-30T04:23:31.604Z,33.25
2017-11-30T04:25:59.880Z,32.70
2017-11-30T04:28:28.926Z,30.42
2017-11-30T04:30:57.191Z,32.90
2017-11-30T04:33:25.451Z,31.77
2017-11-30T04:35:53.728Z,36.72
2017-11-30T04:38:22.007Z,28.25
2017-11-30T04:40:51.073Z,33.00
2017-11-30T04:43:19.318Z,34.88
2017-11-30T04:45:47.603Z,34.10
2017-11-30T04:48:15.873Z,30.30
2017-11-30T04:50:44.159Z,34.17
2017-11-30T04:53:12.414Z,31.13
2017-11-30T04:55:40.685Z,29.40
2017-11-30T04:58:08.949Z,32.67
2017-11-30T05:00:38.004Z,35.27
2017-11-30T05:03:06.245Z,33.22
2017-11-30T05:05:34.561Z,30.27
2017-11-30T05:08:03.213Z,33.92
2017-11-30T05:10:31.504Z,28.10
2017-11-30T05:12:59.771Z,29.15
2017-11-30T05:15:28.044Z,31.48
2017-11-30T05:17:57.079Z,32.72
2017-11-30T05:20:25.353Z,31.03
2017-11-30T05:22:53.612Z,29.52
2017-11-30T05:25:22.639Z,33.20
2017-11-30T05:27:50.902Z,29.60
2017-11-30T05:30:19.173Z,28.47
2017-11-30T05:32:47.430Z,33.47
2017-11-30T05:35:16.469Z,34.67
2017-11-30T05:37:44.726Z,37.40
2017-11-30T05:40:12.995Z,35.60
2017-11-30T05:42:42.043Z,32.43
2017-11-30T05:45:10.324Z,30.92
2017-11-30T05:47:38.582Z,37.28
2017-11-30T05:50:06.872Z,34.30
2017-11-30T05:52:35.129Z,36.03
2017-11-30T05:55:03.402Z,32.67
2017-11-30T05:57:32.612Z,33.73
2017-11-30T06:00:00.944Z,31.00
2017-11-30T06:02:29.195Z,33.60
2017-11-30T06:04:57.493Z,35.03
2017-11-30T06:07:25.781Z,30.57
2017-11-30T06:09:54.060Z,22.95
2017-11-30T06:12:22.316Z,32.93
2017-11-30T06:14:50.643Z,30.70
2017-11-30T06:17:18.993Z,32.40
2017-11-30T06:19:47.253Z,36.15
2017-11-30T06:22:15.526Z,30.08
2017-11-30T06:24:43.784Z,27.45
2017-11-30T06:27:12.812Z,30.17
2017-11-30T06:29:41.063Z,30.30
2017-11-30T06:32:09.337Z,30.07
2017-11-30T06:34:38.381Z,27.40
2017-11-30T06:37:06.754Z,31.27
2017-11-30T06:39:35.012Z,29.95
2017-11-30T06:42:03.360Z,27.42
2017-11-30T06:44:31.628Z,31.08
2017-11-30T06:47:04.920Z,29.05
2017-11-30T06:49:33.237Z,29.00
2017-11-30T06:52:02.272Z,32.13
2017-11-30T06:54:30.567Z,30.70
2017-11-30T06:56:58.836Z,30.63
2017-11-30T06:59:27.133Z,31.80
2017-11-30T07:01:55.415Z,32.42
2017-11-30T07:04:23.687Z,29.20
2017-11-30T07:06:51.951Z,33.38
2017-11-30T07:09:20.255Z,28.63
2017-11-30T07:11:48.669Z,36.05
2017-11-30T07:14:16.946Z,41.05
2017-11-30T07:16:45.289Z,26.48
2017-11-30T07:19:13.570Z,34.10
2017-11-30T07:21:41.844Z,34.10
2017-11-30T07:24:10.101Z,35.60
2017-11-30T07:26:38.437Z,52.97
2017-11-30T07:29:06.743Z,35.55
2017-11-30T07:31:35.190Z,31.80
2017-11-30T07:34:03.453Z,35.22
2017-11-30T07:36:31.728Z,30.10
2017-11-30T07:39:00.033Z,34.42
2017-11-30T07:41:28.441Z,30.42
2017-11-30T07:43:56.680Z,31.02
2017-11-30T07:46:24.944Z,37.78
2017-11-30T07:48:54.144Z,28.95
2017-11-30T07:51:22.411Z,27.45
2017-11-30T07:53:50.679Z,27.80
2017-11-30T07:56:19.733Z,27.17
2017-11-30T07:58:47.979Z,28.60
2017-11-30T08:01:16.257Z,27.83
2017-11-30T08:03:45.284Z,26.70
2017-11-30T08:06:13.563Z,25.87
2017-11-30T08:08:41.806Z,32.07
2017-11-30T08:11:10.864Z,26.20
2017-11-30T08:13:39.955Z,29.23
2017-11-30T08:16:08.215Z,24.20
2017-11-30T08:18:36.468Z,26.10
2017-11-30T08:21:05.615Z,29.50
2017-11-30T08:23:33.868Z,24.50
2017-11-30T08:26:02.146Z,25.77
2017-11-30T08:28:30.436Z,27.40
2017-11-30T08:30:58.758Z,23.57
2017-11-30T08:33:27.012Z,22.70
2017-11-30T08:35:55.274Z,25.10
2017-11-30T08:38:24.300Z,23.43
2017-11-30T08:40:52.567Z,21.33
2017-11-30T08:43:20.821Z,24.70
2017-11-30T08:45:49.090Z,22.07
2017-11-30T08:48:18.101Z,24.13
2017-11-30T08:50:46.363Z,22.90
2017-11-30T08:53:15.385Z,24.47
2017-11-30T08:55:43.651Z,24.93
2017-11-30T08:58:12.713Z,29.33
2017-11-30T09:00:41.209Z,28.10
2017-11-30T09:03:10.329Z,23.10
2017-11-30T09:05:39.006Z,23.67
2017-11-30T09:08:07.474Z,22.37
2017-11-30T09:10:36.576Z,23.10
2017-11-30T09:13:05.177Z,20.47
2017-11-30T09:15:35.243Z,23.93
2017-11-30T09:18:03.508Z,21.90
2017-11-30T09:20:31.776Z,25.37
2017-11-30T09:23:00.069Z,29.50
2017-11-30T09:25:29.098Z,27.00
2017-11-30T09:27:57.348Z,26.30
2017-11-30T09:30:25.600Z,27.00
2017-11-30T09:32:53.943Z,27.70
2017-11-30T09:35:22.193Z,28.63
2017-11-30T09:37:50.465Z,26.67
2017-11-30T09:40:18.716Z,29.57
2017-11-30T09:42:46.986Z,25.03
2017-11-30T09:45:15.252Z,32.20
2017-11-30T09:47:43.524Z,30.17
2017-11-30T09:50:11.781Z,26.27
2017-11-30T09:52:40.059Z,24.67
2017-11-30T09:55:08.351Z,28.50
2017-11-30T09:57:36.622Z,27.43
2017-11-30T10:00:04.883Z,28.83
2017-11-30T10:02:33.210Z,23.17
2017-11-30T10:05:01.518Z,21.97
2017-11-30T10:07:29.783Z,28.10
2017-11-30T10:09:58.069Z,20.23
2017-11-30T10:12:26.536Z,25.10
2017-11-30T10:14:54.781Z,24.47
2017-11-30T10:17:23.039Z,27.07
2017-11-30T10:19:52.103Z,25.47
2017-11-30T10:22:20.369Z,30.17
2017-11-30T10:24:49.138Z,28.83
2017-11-30T10:27:17.395Z,31.00
2017-11-30T10:29:46.532Z,28.90
2017-11-30T10:32:14.796Z,26.47
2017-11-30T10:34:43.062Z,30.23
2017-11-30T10:37:12.104Z,27.20
2017-11-30T10:39:44.176Z,29.43
2017-11-30T10:42:12.461Z,32.77
2017-11-30T10:44:42.029Z,34.75
2017-11-30T10:47:10.312Z,37.20
2017-11-30T10:49:38.567Z,31.87
2017-11-30T10:52:06.871Z,32.70
2017-11-30T10:54:35.129Z,35.50
2017-11-30T10:57:03.411Z,29.63
2017-11-30T10:59:32.708Z,35.10
2017-11-30T11:02:01.398Z,30.07
2017-11-30T11:04:30.005Z,29.10
2017-11-30T11:06:58.567Z,23.27
2017-11-30T11:09:27.780Z,25.87
2017-11-30T11:11:56.565Z,27.27
2017-11-30T11:14:25.104Z,28.23
2017-11-30T11:16:53.439Z,31.53
2017-11-30T11:19:21.686Z,31.70
2017-11-30T11:21:49.982Z,27.50
2017-11-30T11:24:18.256Z,29.33
2017-11-30T11:26:46.671Z,25.33
2017-11-30T11:29:15.012Z,29.73
2017-11-30T11:31:43.284Z,27.43
2017-11-30T11:34:14.712Z,29.33
2017-11-30T11:36:42.977Z,24.03
2017-11-30T11:39:12.286Z,22.00
2017-11-30T11:41:41.316Z,20.53
2017-11-30T11:44:09.555Z,24.43
2017-11-30T11:46:37.832Z,29.40
2017-11-30T11:49:06.087Z,26.57
2017-11-30T11:51:34.360Z,23.60
2017-11-30T11:54:02.655Z,22.70
2017-11-30T11:56:30.944Z,23.73
2017-11-30T11:58:59.205Z,21.83
2017-11-30T12:01:27.468Z,22.00
2017-11-30T12:03:55.894Z,24.00
2017-11-30T12:06:24.146Z,23.70
2017-11-30T12:08:52.406Z,22.17
2017-11-30T12:11:20.677Z,26.63
2017-11-30T12:13:48.985Z,22.67
2017-11-30T12:16:17.226Z,22.33
2017-11-30T12:18:45.557Z,20.73
2017-11-30T12:21:13.803Z,18.40
2017-11-30T12:23:42.071Z,23.30
2017-11-30T12:26:10.369Z,19.60
2017-11-30T12:28:38.645Z,18.97
2017-11-30T12:31:06.986Z,18.70
2017-11-30T12:33:35.234Z,15.93
2017-11-30T12:36:03.488Z,16.90
2017-11-30T12:38:31.788Z,18.97
2017-11-30T12:41:00.095Z,19.87
2017-11-30T12:43:28.347Z,22.67
2017-11-30T12:45:56.591Z,17.43
2017-11-30T12:48:25.619Z,20.87
2017-11-30T12:50:53.920Z,20.40
2017-11-30T12:53:22.186Z,24.60
2017-11-30T12:55:50.476Z,20.90
2017-11-30T12:58:18.751Z,20.20
2017-11-30T13:00:47.038Z,26.37
2017-11-30T13:03:15.307Z,21.73
2017-11-30T13:05:43.595Z,26.60
2017-11-30T13:08:11.866Z,25.17
2017-11-30T13:10:40.128Z,27.60
2017-11-30T13:13:08.405Z,26.37
2017-11-30T13:15:36.718Z,29.20
2017-11-30T13:18:04.986Z,25.13
2017-11-30T13:20:33.233Z,21.80
2017-11-30T13:23:02.302Z,25.93
2017-11-30T13:25:30.573Z,23.97
2017-11-30T13:27:59.053Z,20.50
2017-11-30T13:30:27.310Z,22.80
2017-11-30T13:32:55.690Z,21.10
2017-11-30T13:35:23.964Z,23.40
2017-11-30T13:37:52.220Z,24.87
2017-11-30T13:40:21.244Z,25.47
2017-11-30T13:42:49.514Z,25.47
2017-11-30T13:45:18.550Z,22.90
2017-11-30T13:47:46.831Z,25.40
2017-11-30T13:50:15.110Z,25.27
2017-11-30T13:52:43.395Z,23.67
2017-11-30T13:55:11.648Z,21.40
2017-11-30T13:57:39.989Z,24.93
2017-11-30T14:00:08.689Z,22.50
2017-11-30T14:02:37.033Z,20.03
2017-11-30T14:05:05.282Z,22.57
2017-11-30T14:07:33.579Z,22.13
2017-11-30T14:10:01.890Z,21.87
2017-11-30T14:12:30.154Z,24.33
2017-11-30T14:14:58.438Z,21.20
2017-11-30T14:17:26.719Z,20.13
2017-11-30T14:19:55.001Z,16.93
2017-11-30T14:22:23.263Z,20.33
2017-11-30T14:24:51.508Z,17.93
2017-11-30T14:27:19.778Z,21.60
2017-11-30T14:29:48.049Z,23.60
2017-11-30T14:32:16.411Z,23.00
2017-11-30T14:34:44.675Z,21.13
2017-11-30T14:37:12.947Z,21.60
2017-11-30T14:39:43.429Z,23.27
2017-11-30T14:42:13.312Z,25.50
2017-11-30T14:44:41.569Z,24.40
2017-11-30T14:47:09.843Z,21.63
2017-11-30T14:49:38.770Z,26.53
2017-11-30T14:52:07.039Z,22.17
2017-11-30T14:54:35.304Z,23.30
2017-11-30T14:57:03.603Z,24.53
2017-11-30T14:59:31.885Z,27.03
2017-11-30T15:02:00.139Z,18.60
2017-11-30T15:04:29.307Z,21.70
2017-11-30T15:06:57.566Z,18.70
2017-11-30T15:09:25.935Z,19.10
2017-11-30T15:11:54.248Z,20.57
2017-11-30T15:14:22.597Z,17.10
2017-11-30T15:16:50.847Z,18.57
2017-11-30T15:19:19.105Z,15.37
2017-11-30T15:21:48.167Z,17.70
2017-11-30T15:24:16.438Z,18.67
2017-11-30T15:26:44.722Z,16.27
2017-11-30T15:29:12.987Z,20.83
2017-11-30T15:31:41.243Z,18.27
2017-11-30T15:34:10.288Z,16.50
2017-11-30T15:36:38.666Z,17.40
2017-11-30T15:39:06.953Z,18.03
2017-11-30T15:41:35.217Z,13.30
2017-11-30T15:44:03.480Z,13.27
2017-11-30T15:46:31.744Z,17.63
2017-11-30T15:49:01.025Z,16.17
2017-11-30T15:51:29.279Z,20.10
2017-11-30T15:53:57.650Z,15.93
2017-11-30T15:56:25.938Z,14.47
2017-11-30T15:58:54.313Z,17.43
2017-11-30T16:01:22.586Z,15.13
2017-11-30T16:03:50.835Z,20.87
2017-11-30T16:06:19.952Z,18.73
2017-11-30T16:08:48.946Z,17.77
2017-11-30T16:11:17.217Z,20.03
2017-11-30T16:13:46.254Z,15.80
2017-11-30T16:16:14.519Z,16.07
2017-11-30T16:18:42.783Z,17.20
2017-11-30T16:21:11.088Z,16.13
2017-11-30T16:23:39.324Z,16.30
2017-11-30T16:26:08.415Z,19.90
2017-11-30T16:28:36.681Z,17.47
2017-11-30T16:31:05.002Z,17.70
2017-11-30T16:33:34.044Z,15.00
2017-11-30T16:36:02.322Z,18.83
2017-11-30T16:38:30.622Z,15.83
2017-11-30T16:40:58.883Z,18.07
2017-11-30T16:43:27.158Z,19.43
2017-11-30T16:45:55.415Z,20.00
2017-11-30T16:48:23.682Z,21.90
2017-11-30T16:50:52.715Z,16.93
2017-11-30T16:53:20.989Z,17.07
2017-11-30T16:55:49.264Z,18.90
2017-11-30T16:58:17.563Z,17.90
2017-11-30T17:00:45.816Z,17.17
2017-11-30T17:03:14.086Z,20.70
2017-11-30T17:05:43.106Z,17.23
2017-11-30T17:08:11.370Z,19.97
2017-11-30T17:10:40.399Z,17.97
2017-11-30T17:13:08.659Z,19.00
2017-11-30T17:15:36.914Z,18.70
2017-11-30T17:18:05.970Z,18.00
2017-11-30T17:20:34.203Z,17.47
2017-11-30T17:23:03.254Z,19.40
2017-11-30T17:25:31.578Z,16.03
2017-11-30T17:27:59.818Z,15.00
2017-11-30T17:30:28.480Z,19.07
2017-11-30T17:32:56.749Z,11.93
2017-11-30T17:35:24.990Z,13.53
2017-11-30T17:37:53.370Z,13.53
2017-11-30T17:40:21.626Z,10.67
2017-11-30T17:42:50.003Z,9.73
2017-11-30T17:45:18.253Z,10.20
2017-11-30T17:47:46.608Z,8.63
2017-11-30T17:50:16.355Z,7.83
2017-11-30T17:52:44.662Z,9.80
2017-11-30T17:55:12.926Z,8.57
2017-11-30T17:57:41.182Z,7.45
2017-11-30T18:00:10.205Z,9.37
2017-11-30T18:02:38.460Z,9.00
2017-11-30T18:05:08.216Z,9.30
2017-11-30T18:07:36.466Z,7.45
2017-11-30T18:10:04.742Z,7.47
2017-11-30T18:12:33.007Z,7.50
2017-11-30T18:15:02.026Z,7.77
2017-11-30T18:17:30.438Z,11.60
2017-11-30T18:19:58.713Z,9.10
2017-11-30T18:22:27.005Z,12.60
2017-11-30T18:24:55.237Z,11.23
2017-11-30T18:27:23.566Z,9.57
2017-11-30T18:29:51.846Z,9.32
2017-11-30T18:32:20.112Z,13.50
2017-11-30T18:34:48.376Z,14.02
2017-11-30T18:37:16.622Z,15.80
2017-11-30T18:39:45.670Z,10.67
2017-11-30T18:42:13.921Z,9.65
2017-11-30T18:44:42.939Z,12.50
2017-11-30T18:47:11.186Z,10.27
2017-11-30T18:49:40.268Z,14.87
2017-11-30T18:52:08.491Z,12.57
2017-11-30T18:54:36.781Z,11.45
2017-11-30T18:57:05.044Z,11.70
2017-11-30T18:59:33.310Z,14.63
2017-11-30T19:02:02.389Z,11.27
2017-11-30T19:04:30.659Z,13.80
2017-11-30T19:06:58.912Z,13.38
2017-11-30T19:09:27.177Z,13.90
2017-11-30T19:11:56.198Z,14.03
2017-11-30T19:14:24.473Z,13.80
2017-11-30T19:16:52.723Z,14.00
2017-11-30T19:19:20.986Z,13.03
2017-11-30T19:21:49.226Z,15.43
2017-11-30T19:24:17.494Z,12.60
2017-11-30T19:26:45.756Z,13.27
2017-11-30T19:29:14.707Z,13.68
2017-11-30T19:31:42.923Z,15.97
2017-11-30T19:34:11.198Z,11.37
2017-11-30T19:36:39.510Z,13.90
2017-11-30T19:39:07.782Z,10.23
2017-11-30T19:41:36.035Z,10.23
2017-11-30T19:44:05.064Z,8.00
2017-11-30T19:46:33.300Z,8.50
2017-11-30T19:49:02.331Z,9.40
2017-11-30T19:51:30.637Z,10.73
2017-11-30T19:53:59.002Z,8.27
2017-11-30T19:56:27.249Z,8.57
2017-11-30T19:58:56.280Z,9.30
2017-11-30T20:01:24.546Z,5.65
2017-11-30T20:03:52.830Z,7.40
2017-11-30T20:06:21.852Z,6.90
2017-11-30T20:08:50.099Z,6.72
2017-11-30T20:11:19.114Z,7.50
2017-11-30T20:13:47.359Z,6.93
2017-11-30T20:16:15.691Z,7.67
2017-11-30T20:18:43.939Z,9.20
2017-11-30T20:21:12.954Z,7.30
2017-11-30T20:23:41.203Z,8.30
2017-11-30T20:26:09.454Z,8.27
2017-11-30T20:28:37.693Z,6.53
2017-11-30T20:31:05.983Z,8.70
2017-11-30T20:33:34.267Z,9.27
2017-11-30T20:36:03.303Z,7.67
2017-11-30T20:38:31.616Z,9.43
2017-11-30T20:41:00.809Z,8.37
2017-11-30T20:43:29.833Z,8.90
2017-11-30T20:45:58.094Z,12.43
2017-11-30T20:48:27.143Z,12.00
2017-11-30T20:50:55.461Z,12.17
2017-11-30T20:53:24.471Z,12.60
2017-11-30T20:55:53.508Z,10.60
2017-11-30T20:58:21.756Z,13.53
2017-11-30T21:00:50.039Z,8.70
2017-11-30T21:03:19.044Z,11.87
2017-11-30T21:05:47.641Z,9.67
2017-11-30T21:08:15.936Z,11.83
2017-11-30T21:10:44.185Z,11.33
2017-11-30T21:13:12.506Z,8.47
2017-11-30T21:15:40.860Z,12.00
2017-11-30T21:18:09.058Z,10.47
2017-11-30T21:20:37.337Z,12.63
2017-11-30T21:23:05.592Z,13.77
2017-11-30T21:25:33.868Z,14.60
2017-11-30T21:28:02.183Z,12.33
2017-11-30T21:30:30.464Z,12.88
2017-11-30T21:32:58.710Z,15.65
2017-11-30T21:35:27.961Z,11.85
2017-11-30T21:37:56.214Z,11.87
2017-11-30T21:40:24.502Z,11.20
2017-11-30T21:42:52.783Z,11.57
2017-11-30T21:45:22.702Z,11.50
2017-11-30T21:47:50.970Z,13.13
2017-11-30T21:50:19.273Z,10.07
2017-11-30T21:52:47.526Z,11.95
2017-11-30T21:55:15.794Z,12.63
2017-11-30T21:57:44.111Z,9.57
2017-11-30T22:00:12.639Z,8.97
2017-11-30T22:02:41.320Z,9.40
2017-11-30T22:05:10.043Z,10.80
2017-11-30T22:07:38.362Z,11.33
2017-11-30T22:10:06.757Z,11.20
2017-11-30T22:12:35.015Z,11.55
2017-11-30T22:15:03.291Z,13.98
2017-11-30T22:17:31.882Z,11.85
2017-11-30T22:20:00.219Z,16.15
2017-11-30T22:22:28.445Z,10.03
2017-11-30T22:24:56.823Z,11.80
2017-11-30T22:27:25.070Z,10.73
2017-11-30T22:29:53.346Z,10.60
2017-11-30T22:32:22.422Z,11.00
2017-11-30T22:34:50.675Z,9.00
2017-11-30T22:37:18.922Z,13.00
2017-11-30T22:39:47.174Z,12.68
2017-11-30T22:42:15.431Z,9.47
2017-11-30T22:44:43.682Z,10.25
2017-11-30T22:47:11.950Z,11.63
2017-11-30T22:49:40.201Z,13.15
2017-11-30T22:52:09.260Z,11.17
2017-11-30T22:54:37.490Z,10.60
2017-11-30T22:57:06.522Z,11.32
2017-11-30T22:59:34.787Z,13.77
2017-11-30T23:02:03.110Z,10.48
2017-11-30T23:04:31.373Z,11.93
2017-11-30T23:06:59.662Z,11.43
2017-11-30T23:09:27.919Z,12.15
2017-11-30T23:11:56.250Z,13.57
2017-11-30T23:14:24.496Z,13.20
2017-11-30T23:16:52.745Z,11.77
2017-11-30T23:19:20.993Z,12.80
2017-11-30T23:21:49.256Z,11.60
2017-11-30T23:24:17.504Z,11.43
2017-11-30T23:26:45.769Z,12.37
2017-11-30T23:29:14.019Z,13.63
2017-11-30T23:31:43.158Z,18.25
2017-11-30T23:34:11.427Z,12.30
2017-11-30T23:36:39.693Z,14.60
2017-11-30T23:39:08.703Z,16.13
2017-11-30T23:41:36.983Z,13.95
2017-11-30T23:44:05.247Z,12.25
2017-11-30T23:46:35.775Z,13.48
2017-11-30T23:49:04.082Z,15.70
2017-11-30T23:51:32.405Z,13.45
2017-11-30T23:54:00.667Z,13.80
2017-11-30T23:56:28.935Z,14.87
2017-11-30T23:58:57.204Z,14.40
